sensor_id;sensor_type;location;lat;lon;timestamp;P1;durP1;ratioP1;P2;durP2;ratioP2
80297;SDS011;69599;52.622;9.230;2023-04-24T00:00:22;1.58;;;1.00;;
80297;SDS011;69599;52.622;9.230;2023-04-24T00:02:48;1.98;;;1.15;;
80297;SDS011;69599;52.622;9.230;2023-04-24T00:05:14;1.52;;;1.25;;
80297;SDS011;69599;52.622;9.230;2023-04-24T00:07:43;2.40;;;1.27;;
80297;SDS011;69599;52.622;9.230;2023-04-24T00:10:10;2.42;;;1.20;;
80297;SDS011;69599;52.622;9.230;2023-04-24T00:12:36;1.63;;;1.10;;
80297;SDS011;69599;52.622;9.230;2023-04-24T00:15:01;1.30;;;1.08;;
80297;SDS011;69599;52.622;9.230;2023-04-24T00:17:28;1.25;;;1.00;;
80297;SDS011;69599;52.622;9.230;2023-04-24T00:19:53;1.88;;;0.90;;
80297;SDS011;69599;52.622;9.230;2023-04-24T00:22:26;1.60;;;1.13;;
80297;SDS011;69599;52.622;9.230;2023-04-24T00:24:53;2.38;;;1.10;;
80297;SDS011;69599;52.622;9.230;2023-04-24T00:27:18;1.42;;;0.70;;
80297;SDS011;69599;52.622;9.230;2023-04-24T00:29:44;3.67;;;1.38;;
80297;SDS011;69599;52.622;9.230;2023-04-24T00:32:09;2.35;;;1.00;;
80297;SDS011;69599;52.622;9.230;2023-04-24T00:34:35;0.82;;;0.73;;
80297;SDS011;69599;52.622;9.230;2023-04-24T00:37:01;0.80;;;0.60;;
80297;SDS011;69599;52.622;9.230;2023-04-24T00:39:26;1.48;;;1.00;;
80297;SDS011;69599;52.622;9.230;2023-04-24T00:41:51;1.25;;;0.60;;
80297;SDS011;69599;52.622;9.230;2023-04-24T00:44:18;1.00;;;0.80;;
80297;SDS011;69599;52.622;9.230;2023-04-24T00:46:43;2.97;;;0.80;;
80297;SDS011;69599;52.622;9.230;2023-04-24T00:49:08;2.15;;;0.90;;
80297;SDS011;69599;52.622;9.230;2023-04-24T00:51:34;1.45;;;0.73;;
80297;SDS011;69599;52.622;9.230;2023-04-24T00:54:00;1.63;;;0.80;;
80297;SDS011;69599;52.622;9.230;2023-04-24T00:56:26;2.13;;;0.95;;
80297;SDS011;69599;52.622;9.230;2023-04-24T00:58:52;1.20;;;0.80;;
80297;SDS011;69599;52.622;9.230;2023-04-24T01:01:21;2.67;;;1.73;;
80297;SDS011;69599;52.622;9.230;2023-04-24T01:03:47;1.08;;;0.98;;
80297;SDS011;69599;52.622;9.230;2023-04-24T01:06:15;1.95;;;0.90;;
80297;SDS011;69599;52.622;9.230;2023-04-24T01:08:40;1.20;;;0.80;;
80297;SDS011;69599;52.622;9.230;2023-04-24T01:11:06;2.13;;;0.85;;
80297;SDS011;69599;52.622;9.230;2023-04-24T01:13:32;1.15;;;0.70;;
80297;SDS011;69599;52.622;9.230;2023-04-24T01:15:58;2.03;;;0.60;;
80297;SDS011;69599;52.622;9.230;2023-04-24T01:18:24;1.15;;;0.70;;
80297;SDS011;69599;52.622;9.230;2023-04-24T01:20:50;1.20;;;0.70;;
80297;SDS011;69599;52.622;9.230;2023-04-24T01:23:16;1.48;;;0.70;;
80297;SDS011;69599;52.622;9.230;2023-04-24T01:25:42;1.63;;;0.60;;
80297;SDS011;69599;52.622;9.230;2023-04-24T01:28:07;0.70;;;0.45;;
80297;SDS011;69599;52.622;9.230;2023-04-24T01:30:33;0.93;;;0.70;;
80297;SDS011;69599;52.622;9.230;2023-04-24T01:32:58;1.65;;;0.60;;
80297;SDS011;69599;52.622;9.230;2023-04-24T01:35:24;0.88;;;0.52;;
80297;SDS011;69599;52.622;9.230;2023-04-24T01:37:50;2.38;;;0.70;;
80297;SDS011;69599;52.622;9.230;2023-04-24T01:40:15;0.93;;;0.50;;
80297;SDS011;69599;52.622;9.230;2023-04-24T01:42:41;0.80;;;0.60;;
80297;SDS011;69599;52.622;9.230;2023-04-24T01:45:07;0.70;;;0.40;;
80297;SDS011;69599;52.622;9.230;2023-04-24T01:47:35;1.67;;;0.75;;
80297;SDS011;69599;52.622;9.230;2023-04-24T01:50:01;1.00;;;0.57;;
80297;SDS011;69599;52.622;9.230;2023-04-24T01:52:27;0.52;;;0.50;;
80297;SDS011;69599;52.622;9.230;2023-04-24T01:54:56;0.75;;;0.68;;
80297;SDS011;69599;52.622;9.230;2023-04-24T01:57:22;1.65;;;0.95;;
80297;SDS011;69599;52.622;9.230;2023-04-24T01:59:47;1.20;;;0.75;;
80297;SDS011;69599;52.622;9.230;2023-04-24T02:02:12;0.68;;;0.40;;
80297;SDS011;69599;52.622;9.230;2023-04-24T02:04:39;0.65;;;0.52;;
80297;SDS011;69599;52.622;9.230;2023-04-24T02:07:04;1.05;;;0.52;;
80297;SDS011;69599;52.622;9.230;2023-04-24T02:09:30;1.15;;;0.70;;
80297;SDS011;69599;52.622;9.230;2023-04-24T02:11:55;1.20;;;0.70;;
80297;SDS011;69599;52.622;9.230;2023-04-24T02:14:21;0.95;;;0.60;;
80297;SDS011;69599;52.622;9.230;2023-04-24T02:16:46;1.17;;;0.70;;
80297;SDS011;69599;52.622;9.230;2023-04-24T02:19:12;2.38;;;0.60;;
80297;SDS011;69599;52.622;9.230;2023-04-24T02:21:37;1.77;;;0.80;;
80297;SDS011;69599;52.622;9.230;2023-04-24T02:24:03;1.15;;;0.70;;
80297;SDS011;69599;52.622;9.230;2023-04-24T02:26:28;1.00;;;0.68;;
80297;SDS011;69599;52.622;9.230;2023-04-24T02:28:53;0.75;;;0.50;;
80297;SDS011;69599;52.622;9.230;2023-04-24T02:31:19;0.88;;;0.60;;
80297;SDS011;69599;52.622;9.230;2023-04-24T02:33:44;0.88;;;0.40;;
80297;SDS011;69599;52.622;9.230;2023-04-24T02:36:10;0.52;;;0.45;;
80297;SDS011;69599;52.622;9.230;2023-04-24T02:38:35;0.43;;;0.30;;
80297;SDS011;69599;52.622;9.230;2023-04-24T02:41:01;2.17;;;0.47;;
80297;SDS011;69599;52.622;9.230;2023-04-24T02:43:29;0.52;;;0.43;;
80297;SDS011;69599;52.622;9.230;2023-04-24T02:45:54;0.38;;;0.30;;
80297;SDS011;69599;52.622;9.230;2023-04-24T02:48:20;0.75;;;0.45;;
80297;SDS011;69599;52.622;9.230;2023-04-24T02:50:46;0.50;;;0.40;;
80297;SDS011;69599;52.622;9.230;2023-04-24T02:53:11;0.50;;;0.30;;
80297;SDS011;69599;52.622;9.230;2023-04-24T02:55:37;0.25;;;0.25;;
80297;SDS011;69599;52.622;9.230;2023-04-24T02:58:02;0.30;;;0.30;;
80297;SDS011;69599;52.622;9.230;2023-04-24T03:00:28;0.63;;;0.30;;
80297;SDS011;69599;52.622;9.230;2023-04-24T03:02:53;0.90;;;0.30;;
80297;SDS011;69599;52.622;9.230;2023-04-24T03:05:18;0.55;;;0.30;;
80297;SDS011;69599;52.622;9.230;2023-04-24T03:07:44;0.70;;;0.38;;
80297;SDS011;69599;52.622;9.230;2023-04-24T03:10:10;0.70;;;0.40;;
80297;SDS011;69599;52.622;9.230;2023-04-24T03:12:35;1.25;;;0.40;;
80297;SDS011;69599;52.622;9.230;2023-04-24T03:15:01;0.82;;;0.47;;
80297;SDS011;69599;52.622;9.230;2023-04-24T03:17:26;0.47;;;0.40;;
80297;SDS011;69599;52.622;9.230;2023-04-24T03:19:52;0.85;;;0.47;;
80297;SDS011;69599;52.622;9.230;2023-04-24T03:22:17;1.30;;;0.60;;
80297;SDS011;69599;52.622;9.230;2023-04-24T03:24:42;1.13;;;0.40;;
80297;SDS011;69599;52.622;9.230;2023-04-24T03:27:08;1.58;;;0.80;;
80297;SDS011;69599;52.622;9.230;2023-04-24T03:29:33;0.77;;;0.40;;
80297;SDS011;69599;52.622;9.230;2023-04-24T03:31:59;1.02;;;0.52;;
80297;SDS011;69599;52.622;9.230;2023-04-24T03:34:24;0.93;;;0.60;;
80297;SDS011;69599;52.622;9.230;2023-04-24T03:36:49;1.00;;;0.40;;
80297;SDS011;69599;52.622;9.230;2023-04-24T03:39:15;1.10;;;0.80;;
80297;SDS011;69599;52.622;9.230;2023-04-24T03:41:40;0.80;;;0.50;;
80297;SDS011;69599;52.622;9.230;2023-04-24T03:44:06;1.52;;;0.70;;
80297;SDS011;69599;52.622;9.230;2023-04-24T03:46:31;0.70;;;0.40;;
80297;SDS011;69599;52.622;9.230;2023-04-24T03:48:57;1.13;;;0.57;;
80297;SDS011;69599;52.622;9.230;2023-04-24T03:51:22;0.85;;;0.60;;
80297;SDS011;69599;52.622;9.230;2023-04-24T03:53:48;1.83;;;0.70;;
80297;SDS011;69599;52.622;9.230;2023-04-24T03:56:14;1.73;;;0.73;;
80297;SDS011;69599;52.622;9.230;2023-04-24T03:58:40;1.48;;;0.90;;
80297;SDS011;69599;52.622;9.230;2023-04-24T04:01:05;1.60;;;1.05;;
80297;SDS011;69599;52.622;9.230;2023-04-24T04:03:31;3.03;;;1.10;;
80297;SDS011;69599;52.622;9.230;2023-04-24T04:05:56;1.35;;;0.88;;
80297;SDS011;69599;52.622;9.230;2023-04-24T04:08:22;1.58;;;1.10;;
80297;SDS011;69599;52.622;9.230;2023-04-24T04:10:47;2.67;;;1.05;;
80297;SDS011;69599;52.622;9.230;2023-04-24T04:13:12;1.33;;;1.02;;
80297;SDS011;69599;52.622;9.230;2023-04-24T04:15:38;1.95;;;1.10;;
80297;SDS011;69599;52.622;9.230;2023-04-24T04:18:04;2.08;;;1.20;;
80297;SDS011;69599;52.622;9.230;2023-04-24T04:20:30;1.90;;;1.20;;
80297;SDS011;69599;52.622;9.230;2023-04-24T04:22:55;2.20;;;1.30;;
80297;SDS011;69599;52.622;9.230;2023-04-24T04:25:21;1.60;;;1.10;;
80297;SDS011;69599;52.622;9.230;2023-04-24T04:27:46;1.90;;;1.10;;
80297;SDS011;69599;52.622;9.230;2023-04-24T04:30:16;1.58;;;1.05;;
80297;SDS011;69599;52.622;9.230;2023-04-24T04:32:43;2.17;;;1.17;;
80297;SDS011;69599;52.622;9.230;2023-04-24T04:35:08;1.40;;;1.02;;
80297;SDS011;69599;52.622;9.230;2023-04-24T04:37:34;4.15;;;1.98;;
80297;SDS011;69599;52.622;9.230;2023-04-24T04:40:00;2.20;;;1.35;;
80297;SDS011;69599;52.622;9.230;2023-04-24T04:42:26;1.35;;;0.75;;
80297;SDS011;69599;52.622;9.230;2023-04-24T04:44:54;1.50;;;1.00;;
80297;SDS011;69599;52.622;9.230;2023-04-24T04:47:22;2.60;;;0.98;;
80297;SDS011;69599;52.622;9.230;2023-04-24T04:49:48;2.42;;;1.15;;
80297;SDS011;69599;52.622;9.230;2023-04-24T04:52:13;1.65;;;1.08;;
80297;SDS011;69599;52.622;9.230;2023-04-24T04:54:39;2.15;;;0.98;;
80297;SDS011;69599;52.622;9.230;2023-04-24T04:57:05;3.10;;;1.00;;
80297;SDS011;69599;52.622;9.230;2023-04-24T04:59:31;1.10;;;0.80;;
80297;SDS011;69599;52.622;9.230;2023-04-24T05:01:56;1.70;;;0.90;;
80297;SDS011;69599;52.622;9.230;2023-04-24T05:04:21;2.60;;;0.93;;
80297;SDS011;69599;52.622;9.230;2023-04-24T05:06:47;2.25;;;0.80;;
80297;SDS011;69599;52.622;9.230;2023-04-24T05:09:12;2.60;;;1.55;;
80297;SDS011;69599;52.622;9.230;2023-04-24T05:11:38;2.10;;;0.93;;
80297;SDS011;69599;52.622;9.230;2023-04-24T05:14:03;2.30;;;0.82;;
80297;SDS011;69599;52.622;9.230;2023-04-24T05:16:29;1.27;;;0.82;;
80297;SDS011;69599;52.622;9.230;2023-04-24T05:18:55;2.17;;;0.93;;
80297;SDS011;69599;52.622;9.230;2023-04-24T05:21:21;1.30;;;0.77;;
80297;SDS011;69599;52.622;9.230;2023-04-24T05:23:46;2.45;;;0.80;;
80297;SDS011;69599;52.622;9.230;2023-04-24T05:26:12;2.08;;;1.00;;
80297;SDS011;69599;52.622;9.230;2023-04-24T05:28:38;1.88;;;1.10;;
80297;SDS011;69599;52.622;9.230;2023-04-24T05:31:03;2.55;;;1.10;;
80297;SDS011;69599;52.622;9.230;2023-04-24T05:33:29;3.53;;;1.00;;
80297;SDS011;69599;52.622;9.230;2023-04-24T05:35:55;1.73;;;0.85;;
80297;SDS011;69599;52.622;9.230;2023-04-24T05:38:20;1.60;;;0.90;;
80297;SDS011;69599;52.622;9.230;2023-04-24T05:40:46;2.20;;;0.82;;
80297;SDS011;69599;52.622;9.230;2023-04-24T05:43:12;2.58;;;1.35;;
80297;SDS011;69599;52.622;9.230;2023-04-24T05:45:38;2.42;;;1.52;;
80297;SDS011;69599;52.622;9.230;2023-04-24T05:48:03;2.22;;;1.60;;
80297;SDS011;69599;52.622;9.230;2023-04-24T05:50:29;2.40;;;1.38;;
80297;SDS011;69599;52.622;9.230;2023-04-24T05:52:55;2.60;;;1.23;;
80297;SDS011;69599;52.622;9.230;2023-04-24T05:55:23;3.70;;;1.73;;
80297;SDS011;69599;52.622;9.230;2023-04-24T05:57:49;2.05;;;1.40;;
80297;SDS011;69599;52.622;9.230;2023-04-24T06:00:14;3.40;;;1.85;;
80297;SDS011;69599;52.622;9.230;2023-04-24T06:02:40;2.20;;;1.70;;
80297;SDS011;69599;52.622;9.230;2023-04-24T06:05:06;3.30;;;1.95;;
80297;SDS011;69599;52.622;9.230;2023-04-24T06:07:33;2.85;;;1.70;;
80297;SDS011;69599;52.622;9.230;2023-04-24T06:09:58;3.42;;;1.85;;
80297;SDS011;69599;52.622;9.230;2023-04-24T06:12:24;2.83;;;1.85;;
80297;SDS011;69599;52.622;9.230;2023-04-24T06:14:50;3.50;;;1.95;;
80297;SDS011;69599;52.622;9.230;2023-04-24T06:17:16;3.72;;;2.20;;
80297;SDS011;69599;52.622;9.230;2023-04-24T06:19:41;5.32;;;2.58;;
80297;SDS011;69599;52.622;9.230;2023-04-24T06:22:07;3.15;;;1.98;;
80297;SDS011;69599;52.622;9.230;2023-04-24T06:24:33;4.68;;;2.28;;
80297;SDS011;69599;52.622;9.230;2023-04-24T06:26:59;3.88;;;2.03;;
80297;SDS011;69599;52.622;9.230;2023-04-24T06:29:26;3.42;;;2.47;;
80297;SDS011;69599;52.622;9.230;2023-04-24T06:31:52;6.30;;;3.80;;
80297;SDS011;69599;52.622;9.230;2023-04-24T06:34:17;7.07;;;4.97;;
80297;SDS011;69599;52.622;9.230;2023-04-24T06:36:43;7.75;;;5.80;;
80297;SDS011;69599;52.622;9.230;2023-04-24T06:39:08;8.18;;;6.07;;
80297;SDS011;69599;52.622;9.230;2023-04-24T06:41:34;9.90;;;6.85;;
80297;SDS011;69599;52.622;9.230;2023-04-24T06:43:59;9.20;;;6.65;;
80297;SDS011;69599;52.622;9.230;2023-04-24T06:46:25;10.13;;;7.18;;
80297;SDS011;69599;52.622;9.230;2023-04-24T06:48:52;10.60;;;7.70;;
80297;SDS011;69599;52.622;9.230;2023-04-24T06:51:22;11.15;;;6.63;;
80297;SDS011;69599;52.622;9.230;2023-04-24T06:53:48;12.07;;;7.07;;
80297;SDS011;69599;52.622;9.230;2023-04-24T06:56:14;11.90;;;7.00;;
80297;SDS011;69599;52.622;9.230;2023-04-24T06:58:40;8.55;;;6.25;;
80297;SDS011;69599;52.622;9.230;2023-04-24T07:01:05;8.63;;;6.68;;
80297;SDS011;69599;52.622;9.230;2023-04-24T07:03:31;8.40;;;6.18;;
80297;SDS011;69599;52.622;9.230;2023-04-24T07:05:56;10.93;;;6.30;;
80297;SDS011;69599;52.622;9.230;2023-04-24T07:08:22;10.55;;;6.60;;
80297;SDS011;69599;52.622;9.230;2023-04-24T07:10:48;9.88;;;6.38;;
80297;SDS011;69599;52.622;9.230;2023-04-24T07:13:15;9.02;;;6.22;;
80297;SDS011;69599;52.622;9.230;2023-04-24T07:15:41;10.50;;;6.63;;
80297;SDS011;69599;52.622;9.230;2023-04-24T07:18:06;9.93;;;6.63;;
80297;SDS011;69599;52.622;9.230;2023-04-24T07:20:32;10.05;;;6.43;;
80297;SDS011;69599;52.622;9.230;2023-04-24T07:22:58;8.93;;;6.13;;
80297;SDS011;69599;52.622;9.230;2023-04-24T07:25:23;10.07;;;5.88;;
80297;SDS011;69599;52.622;9.230;2023-04-24T07:27:49;11.65;;;7.00;;
80297;SDS011;69599;52.622;9.230;2023-04-24T07:30:14;11.45;;;7.05;;
80297;SDS011;69599;52.622;9.230;2023-04-24T07:32:40;10.18;;;6.50;;
80297;SDS011;69599;52.622;9.230;2023-04-24T07:35:05;9.38;;;6.63;;
80297;SDS011;69599;52.622;9.230;2023-04-24T07:37:31;9.52;;;6.45;;
80297;SDS011;69599;52.622;9.230;2023-04-24T07:39:56;10.95;;;6.47;;
80297;SDS011;69599;52.622;9.230;2023-04-24T07:42:22;11.80;;;6.68;;
80297;SDS011;69599;52.622;9.230;2023-04-24T07:44:47;9.40;;;6.28;;
80297;SDS011;69599;52.622;9.230;2023-04-24T07:47:13;11.10;;;6.35;;
80297;SDS011;69599;52.622;9.230;2023-04-24T07:49:41;11.50;;;6.63;;
80297;SDS011;69599;52.622;9.230;2023-04-24T07:52:07;13.05;;;6.93;;
80297;SDS011;69599;52.622;9.230;2023-04-24T07:54:32;11.70;;;6.38;;
80297;SDS011;69599;52.622;9.230;2023-04-24T07:56:58;11.48;;;7.10;;
80297;SDS011;69599;52.622;9.230;2023-04-24T07:59:23;10.73;;;6.93;;
80297;SDS011;69599;52.622;9.230;2023-04-24T08:01:48;11.15;;;6.88;;
80297;SDS011;69599;52.622;9.230;2023-04-24T08:04:14;11.32;;;6.43;;
80297;SDS011;69599;52.622;9.230;2023-04-24T08:06:39;10.88;;;7.07;;
80297;SDS011;69599;52.622;9.230;2023-04-24T08:09:05;9.93;;;6.72;;
80297;SDS011;69599;52.622;9.230;2023-04-24T08:11:31;11.50;;;6.65;;
80297;SDS011;69599;52.622;9.230;2023-04-24T08:13:56;13.20;;;7.13;;
80297;SDS011;69599;52.622;9.230;2023-04-24T08:16:22;10.20;;;7.03;;
80297;SDS011;69599;52.622;9.230;2023-04-24T08:18:48;10.07;;;6.90;;
80297;SDS011;69599;52.622;9.230;2023-04-24T08:21:14;9.77;;;7.38;;
80297;SDS011;69599;52.622;9.230;2023-04-24T08:23:42;9.43;;;6.88;;
80297;SDS011;69599;52.622;9.230;2023-04-24T08:26:08;10.45;;;7.18;;
80297;SDS011;69599;52.622;9.230;2023-04-24T08:28:33;9.10;;;6.40;;
80297;SDS011;69599;52.622;9.230;2023-04-24T08:30:58;11.55;;;7.28;;
80297;SDS011;69599;52.622;9.230;2023-04-24T08:33:24;10.13;;;6.80;;
80297;SDS011;69599;52.622;9.230;2023-04-24T08:35:49;9.38;;;6.38;;
80297;SDS011;69599;52.622;9.230;2023-04-24T08:38:15;10.40;;;6.45;;
80297;SDS011;69599;52.622;9.230;2023-04-24T08:40:41;9.82;;;6.80;;
80297;SDS011;69599;52.622;9.230;2023-04-24T08:43:07;10.63;;;7.40;;
80297;SDS011;69599;52.622;9.230;2023-04-24T08:45:32;11.07;;;7.38;;
80297;SDS011;69599;52.622;9.230;2023-04-24T08:47:58;11.02;;;7.75;;
80297;SDS011;69599;52.622;9.230;2023-04-24T08:50:24;10.80;;;7.20;;
80297;SDS011;69599;52.622;9.230;2023-04-24T08:52:50;14.63;;;7.97;;
80297;SDS011;69599;52.622;9.230;2023-04-24T08:55:18;9.80;;;6.90;;
80297;SDS011;69599;52.622;9.230;2023-04-24T08:57:45;10.90;;;7.38;;
80297;SDS011;69599;52.622;9.230;2023-04-24T09:00:13;9.63;;;7.20;;
80297;SDS011;69599;52.622;9.230;2023-04-24T09:02:40;11.60;;;6.82;;
80297;SDS011;69599;52.622;9.230;2023-04-24T09:05:08;10.68;;;7.18;;
80297;SDS011;69599;52.622;9.230;2023-04-24T09:07:34;11.88;;;7.05;;
80297;SDS011;69599;52.622;9.230;2023-04-24T09:10:01;9.73;;;6.57;;
80297;SDS011;69599;52.622;9.230;2023-04-24T09:12:27;10.65;;;6.53;;
80297;SDS011;69599;52.622;9.230;2023-04-24T09:14:52;9.95;;;6.55;;
80297;SDS011;69599;52.622;9.230;2023-04-24T09:17:18;8.65;;;6.47;;
80297;SDS011;69599;52.622;9.230;2023-04-24T09:19:44;7.75;;;6.10;;
80297;SDS011;69599;52.622;9.230;2023-04-24T09:22:09;10.50;;;6.32;;
80297;SDS011;69599;52.622;9.230;2023-04-24T09:24:36;8.40;;;6.30;;
80297;SDS011;69599;52.622;9.230;2023-04-24T09:27:01;9.70;;;6.10;;
80297;SDS011;69599;52.622;9.230;2023-04-24T09:29:27;6.65;;;4.93;;
80297;SDS011;69599;52.622;9.230;2023-04-24T09:31:53;7.70;;;5.57;;
80297;SDS011;69599;52.622;9.230;2023-04-24T09:34:22;9.20;;;5.70;;
80297;SDS011;69599;52.622;9.230;2023-04-24T09:36:48;6.05;;;4.60;;
80297;SDS011;69599;52.622;9.230;2023-04-24T09:39:15;6.93;;;5.22;;
80297;SDS011;69599;52.622;9.230;2023-04-24T09:41:44;8.38;;;6.13;;
80297;SDS011;69599;52.622;9.230;2023-04-24T09:44:21;8.93;;;5.18;;
80297;SDS011;69599;52.622;9.230;2023-04-24T09:46:51;8.10;;;5.88;;
80297;SDS011;69599;52.622;9.230;2023-04-24T09:49:28;8.23;;;5.63;;
80297;SDS011;69599;52.622;9.230;2023-04-24T09:52:11;6.20;;;4.35;;
80297;SDS011;69599;52.622;9.230;2023-04-24T09:54:37;5.90;;;4.38;;
80297;SDS011;69599;52.622;9.230;2023-04-24T09:57:03;6.13;;;4.72;;
80297;SDS011;69599;52.622;9.230;2023-04-24T09:59:29;6.82;;;4.32;;
80297;SDS011;69599;52.622;9.230;2023-04-24T10:01:55;5.10;;;4.20;;
80297;SDS011;69599;52.622;9.230;2023-04-24T10:04:22;6.07;;;4.38;;
80297;SDS011;69599;52.622;9.230;2023-04-24T10:06:49;5.57;;;4.00;;
80297;SDS011;69599;52.622;9.230;2023-04-24T10:09:16;6.38;;;4.20;;
80297;SDS011;69599;52.622;9.230;2023-04-24T10:11:43;4.88;;;3.60;;
80297;SDS011;69599;52.622;9.230;2023-04-24T10:14:14;5.28;;;3.80;;
80297;SDS011;69599;52.622;9.230;2023-04-24T10:16:41;5.05;;;3.80;;
80297;SDS011;69599;52.622;9.230;2023-04-24T10:19:07;4.47;;;3.70;;
80297;SDS011;69599;52.622;9.230;2023-04-24T10:21:34;5.50;;;3.80;;
80297;SDS011;69599;52.622;9.230;2023-04-24T10:24:00;5.25;;;3.90;;
80297;SDS011;69599;52.622;9.230;2023-04-24T10:26:28;6.15;;;3.80;;
80297;SDS011;69599;52.622;9.230;2023-04-24T10:28:54;5.20;;;3.70;;
80297;SDS011;69599;52.622;9.230;2023-04-24T10:31:22;4.97;;;3.72;;
80297;SDS011;69599;52.622;9.230;2023-04-24T10:33:47;4.15;;;3.75;;
80297;SDS011;69599;52.622;9.230;2023-04-24T10:36:15;4.22;;;3.30;;
80297;SDS011;69599;52.622;9.230;2023-04-24T10:38:41;4.57;;;3.25;;
80297;SDS011;69599;52.622;9.230;2023-04-24T10:41:08;4.35;;;3.42;;
80297;SDS011;69599;52.622;9.230;2023-04-24T10:43:35;4.85;;;3.30;;
80297;SDS011;69599;52.622;9.230;2023-04-24T10:46:04;5.28;;;2.90;;
80297;SDS011;69599;52.622;9.230;2023-04-24T10:48:31;3.45;;;2.58;;
80297;SDS011;69599;52.622;9.230;2023-04-24T10:50:57;3.17;;;2.78;;
80297;SDS011;69599;52.622;9.230;2023-04-24T10:53:23;2.97;;;2.65;;
80297;SDS011;69599;52.622;9.230;2023-04-24T10:56:04;5.57;;;3.00;;
80297;SDS011;69599;52.622;9.230;2023-04-24T10:58:38;3.72;;;3.15;;
80297;SDS011;69599;52.622;9.230;2023-04-24T11:01:24;4.70;;;2.95;;
80297;SDS011;69599;52.622;9.230;2023-04-24T11:03:54;2.70;;;2.20;;
80297;SDS011;69599;52.622;9.230;2023-04-24T11:06:30;3.33;;;2.47;;
80297;SDS011;69599;52.622;9.230;2023-04-24T11:09:01;2.53;;;1.80;;
80297;SDS011;69599;52.622;9.230;2023-04-24T11:11:29;3.25;;;2.85;;
80297;SDS011;69599;52.622;9.230;2023-04-24T11:16:21;2.30;;;1.85;;
80297;SDS011;69599;52.622;9.230;2023-04-24T11:19:00;2.70;;;1.98;;
80297;SDS011;69599;52.622;9.230;2023-04-24T11:22:17;3.53;;;2.67;;
80297;SDS011;69599;52.622;9.230;2023-04-24T11:27:05;3.22;;;2.15;;
80297;SDS011;69599;52.622;9.230;2023-04-24T11:29:40;4.45;;;2.95;;
80297;SDS011;69599;52.622;9.230;2023-04-24T11:32:15;3.53;;;2.40;;
80297;SDS011;69599;52.622;9.230;2023-04-24T11:34:45;2.92;;;2.00;;
80297;SDS011;69599;52.622;9.230;2023-04-24T11:37:12;3.95;;;2.47;;
80297;SDS011;69599;52.622;9.230;2023-04-24T11:39:38;2.95;;;2.08;;
80297;SDS011;69599;52.622;9.230;2023-04-24T11:42:03;3.67;;;2.42;;
80297;SDS011;69599;52.622;9.230;2023-04-24T11:44:31;2.95;;;2.28;;
80297;SDS011;69599;52.622;9.230;2023-04-24T11:46:56;3.50;;;2.25;;
80297;SDS011;69599;52.622;9.230;2023-04-24T11:49:22;3.08;;;2.45;;
80297;SDS011;69599;52.622;9.230;2023-04-24T11:51:47;3.72;;;2.90;;
80297;SDS011;69599;52.622;9.230;2023-04-24T11:54:13;3.63;;;2.72;;
80297;SDS011;69599;52.622;9.230;2023-04-24T11:56:38;3.85;;;2.53;;
80297;SDS011;69599;52.622;9.230;2023-04-24T11:59:04;4.25;;;2.88;;
80297;SDS011;69599;52.622;9.230;2023-04-24T12:01:29;4.30;;;3.20;;
80297;SDS011;69599;52.622;9.230;2023-04-24T12:03:59;3.60;;;2.60;;
80297;SDS011;69599;52.622;9.230;2023-04-24T12:06:25;4.60;;;2.75;;
80297;SDS011;69599;52.622;9.230;2023-04-24T12:08:52;3.00;;;2.38;;
80297;SDS011;69599;52.622;9.230;2023-04-24T12:11:19;3.13;;;2.70;;
80297;SDS011;69599;52.622;9.230;2023-04-24T12:13:45;3.83;;;2.97;;
80297;SDS011;69599;52.622;9.230;2023-04-24T12:16:10;4.00;;;2.92;;
80297;SDS011;69599;52.622;9.230;2023-04-24T12:18:41;2.90;;;2.58;;
80297;SDS011;69599;52.622;9.230;2023-04-24T12:23:45;3.33;;;2.85;;
80297;SDS011;69599;52.622;9.230;2023-04-24T12:26:12;4.00;;;3.03;;
80297;SDS011;69599;52.622;9.230;2023-04-24T12:28:41;3.15;;;2.00;;
80297;SDS011;69599;52.622;9.230;2023-04-24T12:31:07;3.10;;;2.30;;
80297;SDS011;69599;52.622;9.230;2023-04-24T12:33:33;2.42;;;2.00;;
80297;SDS011;69599;52.622;9.230;2023-04-24T12:36:00;3.08;;;2.35;;
80297;SDS011;69599;52.622;9.230;2023-04-24T12:38:26;2.70;;;2.05;;
80297;SDS011;69599;52.622;9.230;2023-04-24T12:41:04;3.58;;;2.10;;
80297;SDS011;69599;52.622;9.230;2023-04-24T12:43:31;3.17;;;2.20;;
80297;SDS011;69599;52.622;9.230;2023-04-24T12:45:56;4.28;;;2.00;;
80297;SDS011;69599;52.622;9.230;2023-04-24T12:48:22;2.63;;;1.90;;
80297;SDS011;69599;52.622;9.230;2023-04-24T12:50:47;2.35;;;1.58;;
80297;SDS011;69599;52.622;9.230;2023-04-24T12:53:14;2.28;;;1.70;;
80297;SDS011;69599;52.622;9.230;2023-04-24T12:55:40;3.20;;;1.85;;
80297;SDS011;69599;52.622;9.230;2023-04-24T12:58:05;1.65;;;1.00;;
80297;SDS011;69599;52.622;9.230;2023-04-24T13:00:30;1.77;;;1.10;;
80297;SDS011;69599;52.622;9.230;2023-04-24T13:02:56;1.70;;;1.35;;
80297;SDS011;69599;52.622;9.230;2023-04-24T13:05:21;1.60;;;0.98;;
80297;SDS011;69599;52.622;9.230;2023-04-24T13:07:47;1.27;;;0.85;;
80297;SDS011;69599;52.622;9.230;2023-04-24T13:10:12;1.50;;;0.65;;
80297;SDS011;69599;52.622;9.230;2023-04-24T13:12:38;3.78;;;1.05;;
80297;SDS011;69599;52.622;9.230;2023-04-24T13:15:04;1.50;;;0.90;;
80297;SDS011;69599;52.622;9.230;2023-04-24T13:17:30;1.58;;;0.98;;
80297;SDS011;69599;52.622;9.230;2023-04-24T13:19:56;2.60;;;1.30;;
80297;SDS011;69599;52.622;9.230;2023-04-24T13:22:21;3.95;;;1.38;;
80297;SDS011;69599;52.622;9.230;2023-04-24T13:24:47;3.35;;;1.50;;
80297;SDS011;69599;52.622;9.230;2023-04-24T13:27:15;4.18;;;1.90;;
80297;SDS011;69599;52.622;9.230;2023-04-24T13:29:41;5.40;;;2.00;;
80297;SDS011;69599;52.622;9.230;2023-04-24T13:32:07;3.67;;;2.00;;
80297;SDS011;69599;52.622;9.230;2023-04-24T13:34:33;3.92;;;2.33;;
80297;SDS011;69599;52.622;9.230;2023-04-24T13:37:00;2.88;;;1.98;;
80297;SDS011;69599;52.622;9.230;2023-04-24T13:39:25;3.08;;;2.25;;
80297;SDS011;69599;52.622;9.230;2023-04-24T13:41:51;3.85;;;2.33;;
80297;SDS011;69599;52.622;9.230;2023-04-24T13:44:17;4.85;;;2.80;;
80297;SDS011;69599;52.622;9.230;2023-04-24T13:46:44;5.10;;;2.60;;
80297;SDS011;69599;52.622;9.230;2023-04-24T13:49:12;6.97;;;3.28;;
80297;SDS011;69599;52.622;9.230;2023-04-24T13:51:38;5.07;;;3.25;;
80297;SDS011;69599;52.622;9.230;2023-04-24T13:54:04;6.15;;;2.80;;
80297;SDS011;69599;52.622;9.230;2023-04-24T13:56:30;6.90;;;3.60;;
80297;SDS011;69599;52.622;9.230;2023-04-24T13:58:56;6.25;;;3.97;;
80297;SDS011;69599;52.622;9.230;2023-04-24T14:01:21;5.90;;;3.75;;
80297;SDS011;69599;52.622;9.230;2023-04-24T14:03:52;4.82;;;3.25;;
80297;SDS011;69599;52.622;9.230;2023-04-24T14:06:19;7.20;;;3.00;;
80297;SDS011;69599;52.622;9.230;2023-04-24T14:08:45;5.00;;;3.42;;
80297;SDS011;69599;52.622;9.230;2023-04-24T14:11:10;6.35;;;3.53;;
80297;SDS011;69599;52.622;9.230;2023-04-24T14:13:36;4.85;;;3.35;;
80297;SDS011;69599;52.622;9.230;2023-04-24T14:16:03;4.18;;;3.15;;
80297;SDS011;69599;52.622;9.230;2023-04-24T14:18:29;4.60;;;3.22;;
80297;SDS011;69599;52.622;9.230;2023-04-24T14:20:54;5.30;;;3.13;;
80297;SDS011;69599;52.622;9.230;2023-04-24T14:23:19;6.30;;;3.45;;
80297;SDS011;69599;52.622;9.230;2023-04-24T14:25:45;4.40;;;3.22;;
80297;SDS011;69599;52.622;9.230;2023-04-24T14:28:11;6.55;;;3.00;;
80297;SDS011;69599;52.622;9.230;2023-04-24T14:30:36;5.68;;;3.13;;
80297;SDS011;69599;52.622;9.230;2023-04-24T14:33:02;5.13;;;3.17;;
80297;SDS011;69599;52.622;9.230;2023-04-24T14:35:28;5.20;;;3.53;;
80297;SDS011;69599;52.622;9.230;2023-04-24T14:37:56;5.28;;;3.28;;
80297;SDS011;69599;52.622;9.230;2023-04-24T14:40:21;6.65;;;3.22;;
80297;SDS011;69599;52.622;9.230;2023-04-24T14:42:47;6.18;;;3.92;;
80297;SDS011;69599;52.622;9.230;2023-04-24T14:45:12;6.45;;;3.90;;
80297;SDS011;69599;52.622;9.230;2023-04-24T14:47:38;7.20;;;3.78;;